Time;durP1;ratioP1;P1;durP2;ratioP2;P2;SDS_P1;SDS_P2;PMS_P1;PMS_P2;Temp;Humidity;BMP_temperature;BMP_pressure;BME280_temperature;BME280_humidity;BME280_pressure;Samples;Min_cycle;Max_cycle;Signal;HPM_P1;HPM_P2
2022/11/11 00:02:41;;;;;;;5.22;1.70;;;8.90;99.90;;;7.58;100.00;101919.38;5069455;28;20093;-79
2022/11/11 00:05:26;;;;;;;4.15;1.95;;;8.90;99.90;;;7.56;100.00;101926.84;5069245;28;20478;-81
2022/11/11 00:08:11;;;;;;;6.68;1.40;;;8.90;99.90;;;7.52;100.00;101932.75;5071279;28;20134;-79
2022/11/11 00:11:11;;;;;;;7.32;2.05;;;8.90;99.90;;;7.57;100.00;101939.41;5078976;28;20092;-79
2022/11/11 00:13:55;;;;;;;6.40;1.70;;;8.90;99.90;;;7.51;100.00;101944.63;5080605;28;20047;-79
2022/11/11 00:25:56;;;;;;;6.25;1.30;;;8.80;99.90;;;7.46;100.00;101945.16;5070781;28;20063;-80
2022/11/11 00:28:41;;;;;;;6.05;1.70;;;8.80;99.90;;;7.40;100.00;101933.06;5077077;28;20110;-81
2022/11/11 00:31:25;;;;;;;4.10;1.35;;;8.70;99.90;;;7.40;100.00;101943.06;5079787;28;20055;-79
2022/11/11 00:34:10;;;;;;;5.03;1.50;;;8.80;99.90;;;7.38;100.00;101945.09;5068552;28;20071;-80
2022/11/11 00:36:54;;;;;;;4.07;1.50;;;8.70;99.90;;;7.36;100.00;101950.72;5068771;28;20116;-80
2022/11/11 00:39:39;;;;;;;3.75;1.30;;;8.70;99.90;;;7.33;100.00;101949.16;5068405;28;20115;-80
2022/11/11 00:42:23;;;;;;;5.82;1.50;;;8.70;99.90;;;7.26;100.00;101945.41;5072321;28;20034;-80
2022/11/11 00:45:09;;;;;;;7.20;2.15;;;8.60;99.90;;;7.18;100.00;101943.50;5073635;28;20048;-81
2022/11/11 00:50:59;;;;;;;3.92;1.42;;;8.60;99.90;;;7.11;100.00;101938.88;5070623;28;20114;-81
2022/11/11 00:53:43;;;;;;;5.22;1.55;;;8.50;99.90;;;7.11;100.00;101938.88;5073276;28;20047;-79
2022/11/11 00:56:28;;;;;;;6.75;1.90;;;8.50;99.90;;;7.14;100.00;101946.69;5072779;28;20066;-81
2022/11/11 00:59:13;;;;;;;9.85;1.50;;;8.50;99.90;;;7.19;100.00;101941.66;5077992;28;20122;-81
2022/11/11 01:01:57;;;;;;;6.53;1.80;;;8.60;99.90;;;7.25;100.00;101943.72;5074649;28;20043;-81
2022/11/11 01:04:42;;;;;;;7.78;1.70;;;8.60;99.90;;;7.26;100.00;101937.25;5071371;28;20223;-80
2022/11/11 01:07:26;;;;;;;7.68;1.80;;;8.60;99.90;;;7.31;100.00;101944.94;5069262;28;20117;-81
2022/11/11 01:10:11;;;;;;;5.18;1.50;;;8.70;99.90;;;7.21;100.00;101958.63;5074342;28;20116;-81
2022/11/11 01:13:10;;;;;;;5.35;1.48;;;8.60;99.90;;;7.14;100.00;101963.84;5072510;28;20047;-83
2022/11/11 01:16:03;;;;;;;4.90;1.77;;;8.50;99.90;;;7.03;100.00;101959.53;5074125;28;20048;-80
2022/11/11 01:18:49;;;;;;;6.57;1.77;;;8.40;99.90;;;6.99;100.00;101958.16;5078519;28;20113;-80
2022/11/11 01:21:33;;;;;;;5.22;1.60;;;8.40;99.90;;;6.90;100.00;101970.00;5068819;28;20039;-79
2022/11/11 01:24:18;;;;;;;5.35;1.60;;;8.30;99.90;;;6.89;100.00;101968.25;5069598;28;20132;-80
2022/11/11 01:27:03;;;;;;;6.03;1.85;;;8.30;99.90;;;6.88;100.00;101966.56;5068688;28;20427;-79
2022/11/11 01:29:47;;;;;;;6.10;1.63;;;8.20;99.90;;;6.90;100.00;101961.84;5068424;28;20432;-80
2022/11/11 01:32:31;;;;;;;7.35;1.60;;;8.20;99.90;;;6.87;100.00;101954.88;5067985;28;20048;-80
2022/11/11 01:35:16;;;;;;;6.85;1.38;;;8.20;99.90;;;6.87;100.00;101951.28;5067716;28;20071;-80
2022/11/11 01:38:01;;;;;;;6.25;1.70;;;8.20;99.90;;;6.89;100.00;101957.41;5068411;28;20047;-79
2022/11/11 01:40:48;;;;;;;3.67;1.38;;;8.20;99.90;;;6.79;100.00;101951.25;5067183;28;20051;-80
2022/11/11 01:43:32;;;;;;;6.05;1.45;;;8.20;99.90;;;6.88;100.00;101961.13;5067731;28;20191;-80
2022/11/11 01:46:48;;;;;;;6.80;1.60;;;8.20;99.90;;;6.81;100.00;101960.09;5076358;28;20066;-81
2022/11/11 01:50:00;;;;;;;6.07;1.48;;;8.20;99.90;;;6.75;100.00;101956.13;5076453;28;20051;-80
2022/11/11 01:52:44;;;;;;;8.43;1.83;;;8.10;99.90;;;6.75;100.00;101948.00;5067943;28;20129;-82
2022/11/11 01:55:29;;;;;;;5.28;1.65;;;8.10;99.90;;;6.75;100.00;101950.72;5076835;28;20056;-80
2022/11/11 01:58:16;;;;;;;4.00;1.33;;;8.10;99.90;;;6.74;100.00;101954.44;5068293;28;20050;-80
2022/11/11 02:01:02;;;;;;;6.75;1.42;;;8.10;99.90;;;6.71;100.00;101944.78;5067652;28;20043;-80
2022/11/11 02:07:00;;;;;;;4.57;1.20;;;8.10;99.90;;;6.83;100.00;101941.78;5072134;28;20115;-81
2022/11/11 02:09:47;;;;;;;6.53;1.60;;;8.20;99.90;;;6.89;100.00;101949.28;5074003;28;20522;-79
2022/11/11 02:15:36;;;;;;;4.55;1.70;;;8.20;99.90;;;6.87;100.00;101938.59;5067545;28;20093;-80
2022/11/11 02:18:21;;;;;;;6.93;1.80;;;8.30;99.90;;;6.91;100.00;101937.25;5079836;28;20117;-79
2022/11/11 02:21:06;;;;;;;9.48;1.90;;;8.30;99.90;;;6.98;100.00;101944.75;5077397;28;20048;-79
2022/11/11 02:24:15;;;;;;;7.35;2.00;;;8.40;99.90;;;7.03;100.00;101959.53;5076091;28;20157;-80
2022/11/11 02:27:02;;;;;;;5.72;1.38;;;8.40;99.90;;;7.08;100.00;101955.50;5080652;28;20149;-79
2022/11/11 02:29:51;;;;;;;5.30;2.00;;;8.40;99.90;;;7.02;100.00;101960.56;5079810;28;20035;-81
2022/11/11 02:32:36;;;;;;;6.50;1.90;;;8.40;99.90;;;6.98;100.00;101959.19;5077069;28;20411;-81
2022/11/11 02:35:29;;;;;;;3.03;1.42;;;8.40;99.90;;;6.91;100.00;101971.69;5080420;28;20098;-79
2022/11/11 02:38:13;;;;;;;3.90;1.48;;;8.30;99.90;;;6.88;100.00;101975.56;5079469;28;20073;-81
2022/11/11 02:44:01;;;;;;;6.38;1.55;;;8.20;99.90;;;6.80;100.00;101967.38;5078457;28;20336;-79
2022/11/11 02:46:45;;;;;;;6.20;1.70;;;8.20;99.90;;;6.80;100.00;101977.38;5078097;28;20067;-81
2022/11/11 02:49:30;;;;;;;5.95;1.60;;;8.20;99.90;;;6.69;100.00;101983.91;5079394;28;20610;-80
2022/11/11 02:52:14;;;;;;;6.63;1.77;;;8.10;99.90;;;6.56;100.00;101992.44;5073797;28;20487;-80
2022/11/11 02:54:59;;;;;;;7.90;1.90;;;8.00;99.90;;;6.43;100.00;101979.28;5075651;28;20047;-81
2022/11/11 02:57:43;;;;;;;6.10;1.55;;;7.90;99.90;;;6.68;100.00;101993.06;5076479;28;20043;-81
2022/11/11 03:00:31;;;;;;;6.68;2.17;;;8.00;99.90;;;6.70;100.00;101982.88;5075423;28;20046;-81
2022/11/11 03:03:15;;;;;;;4.45;1.70;;;8.10;99.90;;;6.74;100.00;101981.56;5078225;28;20185;-80
2022/11/11 03:06:00;;;;;;;8.57;2.10;;;8.10;99.90;;;6.73;100.00;101982.56;5080011;28;20035;-81
2022/11/11 03:08:45;;;;;;;4.32;1.85;;;8.10;99.90;;;6.66;100.00;101968.81;5075819;28;20040;-79
2022/11/11 03:11:29;;;;;;;5.43;1.40;;;8.10;99.90;;;6.76;100.00;101969.56;5076970;28;20094;-80
2022/11/11 03:14:14;;;;;;;3.70;1.42;;;8.10;99.90;;;6.83;100.00;101974.34;5074684;28;20044;-80
2022/11/11 03:23:09;;;;;;;5.20;1.50;;;8.40;99.90;;;7.08;100.00;101958.19;5073029;28;20096;-80
2022/11/11 03:25:53;;;;;;;3.43;1.60;;;8.40;99.90;;;7.10;100.00;101956.19;5074193;28;20586;-79
2022/11/11 03:28:38;;;;;;;5.03;1.45;;;8.50;99.90;;;7.18;100.00;101962.50;5069818;28;20047;-79
2022/11/11 03:31:22;;;;;;;5.45;1.70;;;8.60;99.90;;;7.26;100.00;101958.13;5070396;28;20048;-80
2022/11/11 03:34:18;;;;;;;3.13;1.35;;;8.60;99.90;;;7.26;100.00;101966.25;5078519;28;20035;-80
2022/11/11 03:40:12;;;;;;;5.45;1.88;;;8.60;99.90;;;7.34;100.00;101967.16;5069958;28;20052;-79
2022/11/11 03:42:57;;;;;;;7.07;1.60;;;8.70;99.90;;;7.34;100.00;101969.88;5069679;28;20144;-80
2022/11/11 03:45:43;;;;;;;4.25;1.20;;;8.70;99.90;;;7.32;100.00;101955.59;5073144;28;20170;-81
2022/11/11 03:48:33;;;;;;;6.28;1.40;;;8.70;99.90;;;7.34;100.00;101953.56;5076443;28;20047;-81
2022/11/11 03:51:17;;;;;;;3.67;1.40;;;8.70;99.90;;;7.32;100.00;101947.47;5074352;28;20052;-80
2022/11/11 03:54:02;;;;;;;3.78;1.50;;;8.70;99.90;;;7.31;100.00;101956.63;5078858;28;20039;-80
2022/11/11 03:56:46;;;;;;;5.30;1.42;;;8.70;99.90;;;7.28;100.00;101951.53;5076456;28;20051;-80
2022/11/11 03:59:31;;;;;;;6.65;1.30;;;8.70;99.90;;;7.28;100.00;101950.66;5074177;28;20113;-80
2022/11/11 04:11:29;;;;;;;5.97;1.45;;;8.70;99.90;;;7.20;100.00;101955.03;5077549;28;20070;-80
2022/11/11 04:17:17;;;;;;;3.60;1.33;;;8.50;99.90;;;7.04;100.00;101954.97;5075723;28;20412;-80
2022/11/11 04:23:15;;;;;;;4.47;1.60;;;8.30;99.90;;;6.87;100.00;101965.72;5036304;28;20055;-80
2022/11/11 04:26:00;;;;;;;3.75;1.55;;;8.30;99.90;;;6.91;100.00;101971.69;5073052;28;20403;-80
2022/11/11 04:34:54;;;;;;;4.07;1.48;;;8.30;99.90;;;6.88;100.00;101977.41;5078766;28;20043;-80
2022/11/11 04:41:02;;;;;;;3.90;1.40;;;8.20;99.90;;;6.76;100.00;101987.66;5079910;28;20124;-81
2022/11/11 04:41:04;;;;;;;5.50;1.77;;;8.20;99.90;;;6.79;100.00;101972.94;5080235;28;20047;-81
2022/11/11 04:46:51;;;;;;;4.40;1.27;;;8.10;99.90;;;6.77;100.00;101954.16;5076846;28;20467;-82
2022/11/11 04:49:35;;;;;;;5.30;1.58;;;8.10;99.90;;;6.83;100.00;101958.06;5072079;28;20044;-81
2022/11/11 04:52:26;;;;;;;4.10;1.40;;;8.20;99.90;;;6.85;100.00;101959.63;5069069;28;20039;-81
2022/11/11 04:58:17;;;;;;;6.35;1.58;;;8.20;99.90;;;6.90;100.00;101954.56;5070446;28;20423;-80
2022/11/11 05:01:02;;;;;;;4.15;1.40;;;8.30;99.90;;;6.87;100.00;101960.31;5069443;28;20495;-82
2022/11/11 05:03:46;;;;;;;5.75;1.70;;;8.30;99.90;;;6.79;100.00;101971.09;5078211;28;20535;-82
2022/11/11 05:09:34;;;;;;;5.13;1.67;;;8.10;99.90;;;6.68;100.00;101974.94;5068745;28;20471;-82
2022/11/11 05:12:18;;;;;;;5.25;1.70;;;8.10;99.90;;;6.56;100.00;101973.47;5074696;28;20807;-82
2022/11/11 05:21:26;;;;;;;2.63;1.25;;;7.80;99.90;;;6.47;100.00;101988.81;5081388;28;20048;-82
2022/11/11 05:27:14;;;;;;;5.93;1.45;;;7.80;99.90;;;6.42;100.00;102002.00;5074927;28;20119;-84
2022/11/11 05:29:59;;;;;;;3.45;1.25;;;7.80;99.90;;;6.49;100.00;101994.94;5072409;28;20043;-81
2022/11/11 05:32:44;;;;;;;4.93;1.50;;;7.80;99.90;;;6.51;100.00;102000.22;5068266;28;20122;-83
2022/11/11 05:35:28;;;;;;;5.45;1.20;;;7.90;99.90;;;6.42;100.00;102004.69;5067830;28;20415;-83
2022/11/11 05:38:22;;;;;;;3.20;1.25;;;7.80;99.90;;;6.38;100.00;102000.59;5071089;28;20096;-83
2022/11/11 05:41:07;;;;;;;3.95;1.50;;;7.80;99.90;;;6.47;100.00;102005.94;5076564;28;20043;-82
2022/11/11 05:43:52;;;;;;;5.75;1.25;;;7.80;99.90;;;6.45;100.00;101998.97;5072417;28;20522;-83
2022/11/11 05:46:36;;;;;;;5.07;1.48;;;7.80;99.90;;;6.53;100.00;101990.06;5071000;28;20056;-83
2022/11/11 05:49:22;;;;;;;8.23;1.58;;;7.90;99.90;;;6.63;100.00;101985.41;5070630;28;20134;-79
2022/11/11 05:52:09;;;;;;;8.90;1.63;;;8.00;99.90;;;6.75;100.00;101989.56;5073084;28;20040;-80
2022/11/11 05:54:53;;;;;;;14.02;2.20;;;8.10;99.90;;;6.70;100.00;101980.19;5077971;28;20075;-78
2022/11/11 05:57:37;;;;;;;5.22;1.55;;;8.10;99.90;;;6.59;100.00;101990.28;5079132;28;20518;-79
2022/11/11 06:00:22;;;;;;;8.50;2.47;;;8.00;99.90;;;6.47;100.00;101997.81;5077446;28;20044;-79
2022/11/11 06:03:06;;;;;;;7.25;2.28;;;7.90;99.90;;;6.43;100.00;101996.44;5075911;28;20107;-78
2022/11/11 06:05:54;;;;;;;3.80;1.45;;;7.80;99.90;;;6.38;100.00;101987.91;5071822;28;20113;-77
2022/11/11 06:08:39;;;;;;;4.60;1.50;;;7.80;99.90;;;6.37;100.00;101993.47;5071762;28;20245;-78
2022/11/11 06:11:24;;;;;;;6.95;1.85;;;7.70;99.90;;;6.32;100.00;102002.06;5076298;28;20059;-82
2022/11/11 06:14:08;;;;;;;8.75;2.05;;;7.70;99.90;;;6.19;100.00;101997.91;5077801;28;20094;-81
2022/11/11 06:16:53;;;;;;;7.30;2.17;;;7.60;99.90;;;6.24;100.00;102012.84;5072543;28;20048;-86
2022/11/11 06:19:37;;;;;;;8.10;2.40;;;7.60;99.90;;;6.17;100.00;102018.03;5074555;28;20052;-79
2022/11/11 06:22:55;;;;;;;5.18;2.30;;;7.50;99.90;;;6.15;100.00;102011.91;5071621;28;20042;-81
2022/11/11 06:28:35;;;;;;;6.50;2.08;;;7.60;99.90;;;6.22;100.00;102023.00;5071319;28;20329;-83
2022/11/11 06:31:25;;;;;;;6.60;2.40;;;7.60;99.90;;;6.29;100.00;102022.22;5075112;28;20051;-82
2022/11/11 06:34:09;;;;;;;6.10;2.40;;;7.70;99.90;;;6.36;100.00;102027.84;5077791;28;20121;-83
2022/11/11 06:36:54;;;;;;;11.90;2.72;;;7.70;99.90;;;6.38;100.00;102025.00;5077045;28;20082;-78
2022/11/11 06:39:39;;;;;;;13.15;3.35;;;7.70;99.90;;;6.36;100.00;102032.44;5080284;28;21371;-79
2022/11/11 06:42:23;;;;;;;15.30;2.88;;;7.70;99.90;;;6.12;100.00;102015.78;5072279;28;20047;-81
2022/11/11 06:45:11;;;;;;;10.32;2.83;;;7.70;99.90;;;6.09;100.00;102028.78;5078205;28;20870;-81
2022/11/11 06:47:56;;;;;;;8.95;2.25;;;7.50;99.90;;;6.06;100.00;102020.97;5076952;28;20039;-79
2022/11/11 06:50:40;;;;;;;9.73;2.35;;;7.50;99.90;;;6.08;100.00;102030.63;5077165;28;20429;-78
2022/11/11 06:53:27;;;;;;;9.88;2.22;;;7.50;99.90;;;6.18;100.00;102026.00;5074184;28;20093;-78
2022/11/11 06:56:12;;;;;;;9.32;2.00;;;7.60;99.90;;;6.25;100.00;102025.38;5078550;28;20093;-82
2022/11/11 06:58:57;;;;;;;11.43;2.33;;;7.60;99.90;;;6.21;100.00;102018.56;5073199;28;20043;-80
2022/11/11 07:01:41;;;;;;;10.38;3.03;;;7.60;99.90;;;6.12;100.00;102032.06;5071220;28;20095;-79
2022/11/11 07:04:26;;;;;;;9.23;2.42;;;7.60;99.90;;;6.04;100.00;102035.53;5071211;28;20537;-80
2022/11/11 07:07:10;;;;;;;8.05;1.65;;;7.50;99.90;;;6.02;100.00;102037.53;5071389;28;20038;-79
2022/11/11 07:09:55;;;;;;;7.25;2.00;;;7.50;99.90;;;5.99;100.00;102048.66;5075827;28;20043;-78
2022/11/11 07:12:41;;;;;;;7.13;2.08;;;7.40;99.90;;;6.10;100.00;102034.06;5070839;28;20302;-78
2022/11/11 07:15:25;;;;;;;8.40;2.00;;;7.40;99.90;;;6.28;100.00;102041.34;5070242;28;20101;-78
2022/11/11 07:18:10;;;;;;;7.78;2.13;;;7.60;99.90;;;6.42;100.00;102042.66;5076540;28;20097;-78
2022/11/11 07:20:55;;;;;;;13.82;3.55;;;7.80;99.90;;;6.44;100.00;102051.47;5074908;28;20087;-79
2022/11/11 07:23:39;;;;;;;10.85;2.20;;;7.80;99.90;;;6.39;100.00;102059.22;5073797;28;20488;-77
2022/11/11 07:26:23;;;;;;;5.88;1.60;;;7.80;99.90;;;6.41;100.00;102060.81;5077733;28;20410;-77
2022/11/11 07:29:08;;;;;;;5.13;1.70;;;7.90;99.90;;;6.55;100.00;102051.28;5073591;28;20054;-78
2022/11/11 07:31:52;;;;;;;5.82;1.60;;;7.90;99.90;;;6.72;100.00;102060.38;5073892;28;20435;-78
2022/11/11 07:34:37;;;;;;;5.65;1.58;;;8.00;99.90;;;6.94;100.00;102047.34;5071317;28;20051;-79
2022/11/11 07:37:22;;;;;;;9.27;1.80;;;8.30;99.90;;;7.11;100.00;102047.44;5069503;28;20087;-78
2022/11/11 07:40:08;;;;;;;7.20;1.63;;;8.40;99.90;;;7.13;100.00;102048.13;5069158;28;20040;-78
2022/11/11 07:42:52;;;;;;;6.50;1.88;;;8.50;99.90;;;7.22;100.00;102047.19;5068903;28;20083;-78
2022/11/11 07:45:37;;;;;;;4.97;1.85;;;8.60;99.90;;;7.33;100.00;102038.75;5072158;28;20038;-78
2022/11/11 07:48:21;;;;;;;4.78;1.95;;;8.70;99.90;;;7.55;100.00;102036.50;5069307;28;20172;-78
2022/11/11 07:51:06;;;;;;;5.25;1.70;;;8.90;99.90;;;7.69;98.63;102040.47;5070813;28;20040;-80
2022/11/11 07:53:50;;;;;;;3.13;1.38;;;9.00;99.90;;;7.90;96.38;102040.00;5069555;28;20044;-79
2022/11/11 07:56:35;;;;;;;4.18;1.40;;;9.30;99.90;;;7.99;96.94;102046.34;5069947;28;20119;-79
2022/11/11 07:59:19;;;;;;;6.88;1.80;;;9.40;99.90;;;8.05;95.54;102044.81;5074352;28;20122;-77
2022/11/11 08:02:04;;;;;;;4.82;1.52;;;9.40;99.90;;;8.18;94.50;102049.78;5071746;28;20043;-79
2022/11/11 08:04:49;;;;;;;3.72;1.50;;;9.50;99.90;;;8.37;93.09;102056.78;5069427;28;20043;-78
2022/11/11 08:07:35;;;;;;;6.10;1.80;;;9.70;99.90;;;8.51;91.86;102059.91;5075142;28;20055;-81
2022/11/11 08:10:19;;;;;;;4.90;1.38;;;9.80;99.90;;;8.61;90.75;102076.91;5073647;28;20142;-78
2022/11/11 08:16:12;;;;;;;6.25;1.60;;;10.00;99.90;;;8.79;89.44;102071.28;5075994;28;20109;-78
2022/11/11 08:18:58;;;;;;;6.65;1.83;;;10.20;99.90;;;8.86;88.98;102075.03;5076206;28;20060;-78
2022/11/11 08:21:43;;;;;;;6.18;1.77;;;10.20;99.90;;;8.92;88.63;102078.94;5077590;28;20083;-77
2022/11/11 08:24:27;;;;;;;4.55;1.67;;;10.30;99.90;;;9.02;88.37;102079.63;5077343;28;20043;-78
2022/11/11 08:27:12;;;;;;;5.55;1.55;;;10.40;99.90;;;9.12;87.65;102090.31;5082357;28;20055;-79
2022/11/11 08:29:56;;;;;;;5.13;1.90;;;10.50;99.90;;;9.20;86.72;102094.91;5074852;28;20044;-79
2022/11/11 08:32:41;;;;;;;4.53;1.90;;;10.60;99.90;;;9.25;85.86;102105.31;5072587;28;20553;-79
2022/11/11 08:35:27;;;;;;;5.50;1.40;;;10.60;99.90;;;9.30;85.89;102108.34;5076648;28;20131;-79
2022/11/11 08:38:12;;;;;;;4.45;1.92;;;10.70;99.90;;;9.42;85.13;102106.97;5072490;28;20106;-79
2022/11/11 08:41:06;;;;;;;5.95;1.85;;;10.80;99.90;;;9.54;85.03;102104.72;5070395;28;20054;-79
2022/11/11 08:43:53;;;;;;;5.13;1.55;;;10.90;99.90;;;9.61;83.13;102094.84;5070830;28;20094;-78
2022/11/11 08:46:37;;;;;;;4.93;1.95;;;11.00;99.90;;;9.66;84.03;102101.63;5075554;28;20088;-77
2022/11/11 08:49:22;;;;;;;4.00;1.70;;;11.00;99.90;;;9.72;84.10;102101.78;5071357;28;20441;-78
2022/11/11 08:52:06;;;;;;;4.40;1.45;;;11.10;99.90;;;9.90;83.06;102107.00;5069708;28;20082;-78
2022/11/11 08:54:51;;;;;;;6.95;1.73;;;11.20;99.90;;;10.04;81.98;102099.09;5072478;28;20082;-78
2022/11/11 08:57:35;;;;;;;4.10;1.73;;;11.40;99.90;;;10.25;83.22;102100.34;5070616;28;20189;-78
2022/11/11 09:00:20;;;;;;;3.55;1.52;;;11.60;99.90;;;10.45;78.85;102104.34;5074247;28;20174;-77
2022/11/11 09:03:09;;;;;;;2.55;1.40;;;11.80;99.90;;;10.69;77.72;102107.09;5076607;28;20443;-78
2022/11/11 09:05:53;;;;;;;6.00;1.60;;;12.00;99.90;;;10.81;77.50;102110.25;5069828;28;20118;-78
2022/11/11 09:08:45;;;;;;;3.72;1.33;;;12.20;99.90;;;10.98;77.95;102110.94;5071442;28;20063;-78
2022/11/11 09:11:35;;;;;;;4.68;1.63;;;12.30;99.90;;;11.12;75.62;102106.56;5073491;28;20067;-79
2022/11/11 09:14:19;;;;;;;5.50;1.40;;;12.50;99.90;;;11.29;74.70;102116.31;5074955;28;20133;-78
2022/11/11 09:17:05;;;;;;;3.35;1.10;;;12.70;99.90;;;11.40;73.91;102116.88;5069534;28;20078;-78
2022/11/11 09:19:49;;;;;;;3.38;1.30;;;12.80;99.90;;;11.52;73.48;102118.13;5069815;28;20122;-77
2022/11/11 09:22:42;;;;;;;3.40;1.30;;;12.90;99.90;;;11.76;73.28;102118.91;5081149;28;20040;-78
2022/11/11 09:25:26;;;;;;;3.00;1.25;;;13.20;99.90;;;12.17;70.64;102123.03;5076679;28;20043;-78
2022/11/11 09:28:12;;;;;;;5.82;1.17;;;13.70;99.90;;;12.34;68.79;102112.72;5074048;28;20051;-77
2022/11/11 09:30:59;;;;;;;6.22;1.65;;;14.10;99.90;;;12.55;67.14;102117.34;5074286;28;20470;-77
2022/11/11 09:33:43;;;;;;;3.80;1.20;;;14.70;99.90;;;12.87;64.73;102128.00;5080870;28;20075;-78
2022/11/11 09:36:28;;;;;;;4.05;1.17;;;15.10;99.90;;;13.01;63.04;102132.56;5098163;28;20051;-77
2022/11/11 09:39:13;;;;;;;2.95;0.90;;;15.30;99.90;;;13.74;59.81;102136.94;5086717;28;20102;-77
2022/11/11 09:42:23;;;;;;;5.20;1.30;;;16.00;98.40;;;13.95;57.56;102149.72;5081871;28;20584;-78
2022/11/11 09:45:38;;;;;;;1.92;0.80;;;16.00;97.50;;;14.93;54.87;102144.16;5076762;28;20047;-79
2022/11/11 09:48:43;;;;;;;3.85;1.65;;;16.40;96.40;;;15.54;51.46;102147.72;5077742;28;20063;-77
2022/11/11 09:52:04;;;;;;;4.20;0.90;;;16.80;94.40;;;16.40;48.79;102144.94;5078526;28;20048;-79
2022/11/11 09:54:58;;;;;;;1.73;0.93;;;17.60;93.20;;;17.33;46.01;102150.91;5079346;28;20109;-77
2022/11/11 09:57:53;;;;;;;4.45;0.90;;;18.30;91.20;;;17.79;44.67;102153.44;5074940;28;20110;-79
2022/11/11 10:00:44;;;;;;;3.80;1.15;;;18.70;88.40;;;18.27;43.33;102160.13;5080109;28;20047;-79
2022/11/11 10:03:32;;;;;;;3.88;1.02;;;18.80;87.10;;;18.52;42.79;102168.28;5077111;28;20110;-80
2022/11/11 10:06:30;;;;;;;2.55;0.80;;;18.90;85.60;;;18.17;43.20;102165.34;5079595;28;20503;-78
2022/11/11 10:09:26;;;;;;;2.50;0.85;;;19.10;84.60;;;18.54;42.48;102168.06;5080937;28;20058;-78
2022/11/11 10:12:14;;;;;;;2.90;1.10;;;19.70;82.00;;;19.10;41.11;102163.22;5073191;28;20135;-79
2022/11/11 10:15:00;;;;;;;2.85;0.80;;;20.10;80.30;;;18.55;42.07;102166.97;5075869;28;20135;-79
2022/11/11 10:18:14;;;;;;;1.85;0.80;;;19.90;79.60;;;17.81;43.03;102174.22;5086545;28;20105;-78
2022/11/11 10:21:00;;;;;;;1.77;0.73;;;19.20;79.50;;;19.10;40.50;102173.44;5077686;28;20043;-78
2022/11/11 10:23:48;;;;;;;3.03;0.88;;;19.60;79.10;;;18.69;40.40;102178.69;5072190;28;20039;-78
2022/11/11 10:26:43;;;;;;;2.78;1.10;;;20.00;76.60;;;18.84;41.12;102167.22;5073854;28;20404;-79
2022/11/11 10:29:43;;;;;;;2.72;0.73;;;19.90;77.60;;;19.22;40.45;102165.97;5079901;28;20047;-79
2022/11/11 10:32:34;;;;;;;2.65;0.90;;;20.30;75.60;;;18.12;42.56;102160.53;5075783;28;20046;-78
2022/11/11 10:35:29;;;;;;;2.42;0.90;;;20.00;76.50;;;20.24;38.41;102178.84;5077853;28;20055;-78
2022/11/11 10:38:49;;;;;;;3.85;1.00;;;20.80;74.70;;;19.99;38.49;102177.19;5076430;28;20055;-79
2022/11/11 10:41:36;;;;;;;2.53;0.85;;;21.40;72.00;;;21.48;35.26;102178.34;5073159;28;20094;-78
2022/11/11 10:44:31;;;;;;;3.55;1.00;;;22.40;69.40;;;20.86;36.61;102182.84;5072109;28;20043;-78
2022/11/11 10:47:41;;;;;;;2.17;0.90;;;22.20;69.80;;;19.61;38.39;102189.59;5070689;28;20059;-77
2022/11/11 10:50:38;;;;;;;2.60;0.93;;;21.50;69.40;;;19.81;38.35;102183.69;5074591;28;20101;-78
2022/11/11 10:53:40;;;;;;;2.58;0.85;;;21.20;70.20;;;20.39;36.77;102181.94;5073482;28;20043;-77
2022/11/11 10:56:47;;;;;;;2.47;1.00;;;22.10;68.60;;;19.52;38.62;102176.13;5074950;28;20523;-79
2022/11/11 10:59:52;;;;;;;2.10;0.90;;;21.40;69.30;;;20.00;36.91;102186.38;5070347;28;20063;-77
2022/11/11 11:03:20;;;;;;;1.48;0.75;;;21.90;67.50;;;19.52;37.86;102170.59;5069909;28;20052;-79
2022/11/11 11:06:21;;;;;;;3.80;0.90;;;21.10;68.70;;;20.40;36.87;102174.44;5072291;28;20043;-81
2022/11/11 11:09:21;;;;;;;2.22;0.70;;;21.50;67.90;;;19.67;38.54;102172.88;5083203;28;20039;-80
2022/11/11 11:12:21;;;;;;;4.05;0.80;;;21.20;69.30;;;19.79;37.59;102158.19;5074413;28;20248;-87
2022/11/11 11:15:16;;;;;;;4.45;0.93;;;21.50;68.40;;;19.45;38.59;102174.56;5077960;28;20038;-82
2022/11/11 11:18:18;;;;;;;1.83;0.60;;;21.10;69.30;;;20.10;37.11;102172.72;5072094;28;20102;-84
2022/11/11 11:21:07;;;;;;;2.67;0.60;;;21.20;68.50;;;19.90;37.45;102171.19;5070694;28;20085;-81
2022/11/11 11:42:38;;;;;;;2.05;0.70;;;21.70;66.50;;;21.81;34.14;102175.78;5061469;27;20414;-79
2022/11/11 11:45:28;;;;;;;2.95;0.75;;;;;;;23.01;32.00;102181.63;5042639;28;20067;-79
2022/11/11 11:48:25;;;;;;;2.35;0.90;;;;;;;22.27;32.55;102170.81;5039773;28;20043;-80
2022/11/11 11:51:56;;;;;;;2.95;0.98;;;23.10;63.80;;;21.60;33.89;102161.56;5039648;28;20463;-79
2022/11/11 11:55:08;;;;;;;1.52;0.82;;;23.70;60.90;;;20.63;35.00;102181.00;5041154;28;20052;-79
2022/11/11 11:57:56;;;;;;;4.32;0.85;;;22.80;62.70;;;21.82;34.04;102177.47;5039946;28;20100;-79
2022/11/11 12:01:03;;;;;;;6.78;0.77;;;23.30;62.10;;;21.73;33.22;102190.09;5038413;28;20396;-79
2022/11/11 12:04:09;;;;;;;2.63;0.60;;;23.70;61.00;;;21.89;33.04;102180.91;5038450;28;20052;-79
2022/11/11 12:07:11;;;;;;;3.25;0.73;;;23.70;60.50;;;21.43;34.24;102183.81;5035374;28;20113;-76
2022/11/11 12:10:22;;;;;;;2.50;0.77;;;23.40;59.90;;;21.65;33.70;102174.75;5035932;28;20043;-80
2022/11/11 12:13:20;;;;;;;3.88;0.80;;;;;;;22.39;32.90;102192.09;5040424;28;20083;-80
2022/11/11 12:16:24;;;;;;;1.50;0.60;;;;;;;22.88;31.73;102184.88;5041181;28;20047;-80
2022/11/11 12:19:34;;;;;;;2.92;0.70;;;;;;;22.89;30.65;102181.81;5041255;28;20908;-78
2022/11/11 12:22:59;;;;;;;2.58;0.75;;;;;;;22.88;31.16;102182.09;5040768;28;20132;-79
2022/11/11 12:26:11;;;;;;;3.83;0.82;;;;;;;24.70;28.75;102176.50;5034620;28;20261;-78
2022/11/11 12:29:13;;;;;;;2.22;0.90;;;;;;;24.23;29.35;102181.94;5041339;28;20044;-80
2022/11/11 12:32:12;;;;;;;1.77;0.70;;;;;;;23.27;30.79;102167.97;5041669;28;20044;-80
2022/11/11 12:35:25;;;;;;;0.68;0.45;;;;;;;23.16;31.32;102167.00;5040984;28;20052;-80
2022/11/11 12:38:47;;;;;;;2.90;0.80;;;;;;;23.33;31.34;102166.91;5039349;28;20083;-79
2022/11/11 12:41:59;;;;;;;1.42;0.43;;;;;;;22.18;31.88;102168.78;5048305;28;20179;-81
2022/11/11 12:45:09;;;;;;;3.25;0.80;;;;;;;21.80;33.10;102174.13;5044069;28;20531;-80
2022/11/11 12:48:15;;;;;;;3.15;0.95;;;;;;;22.04;32.60;102163.59;5046541;28;20055;-80
2022/11/11 12:51:18;;;;;;;3.03;0.73;;;;;;;22.14;31.79;102168.44;5045981;28;20117;-78
2022/11/11 12:54:41;;;;;;;3.00;0.50;;;;;;;22.57;32.34;102171.47;5046102;28;20051;-78
2022/11/11 12:57:54;;;;;;;2.35;0.63;;;;;;;22.79;32.36;102167.81;5045364;28;20051;-78
2022/11/11 13:00:50;;;;;;;1.75;0.70;;;;;;;22.57;32.44;102170.66;5043797;28;20419;-81
2022/11/11 13:03:58;;;;;;;2.67;0.70;;;23.40;60.50;;;21.56;34.28;102169.56;5047262;28;20051;-80
2022/11/11 13:07:25;;;;;;;2.53;0.63;;;24.20;59.00;;;21.03;35.34;102168.16;5046986;28;20142;-79
2022/11/11 13:10:52;;;;;;;1.83;0.70;;;23.30;60.50;;;21.11;36.04;102176.91;5052223;28;20052;-78
2022/11/11 13:14:07;;;;;;;4.07;0.90;;;23.20;61.30;;;20.72;36.06;102171.19;5053244;28;20040;-78
2022/11/11 13:16:58;;;;;;;2.20;0.70;;;22.90;61.60;;;20.71;36.99;102180.59;5048171;28;20124;-79
2022/11/11 13:19:58;;;;;;;1.83;0.70;;;23.00;62.00;;;20.75;36.69;102179.03;5045308;28;20452;-78
2022/11/11 13:22:42;;;;;;;1.80;0.77;;;22.80;62.20;;;20.45;36.59;102166.25;5044169;28;20071;-81
2022/11/11 13:25:32;;;;;;;2.10;0.85;;;22.70;62.10;;;20.27;37.00;102170.88;5043752;28;20558;-80
2022/11/11 13:28:37;;;;;;;3.58;0.88;;;22.50;62.70;;;19.94;37.78;102175.19;5046388;28;20503;-79
2022/11/11 13:31:36;;;;;;;1.60;0.57;;;22.00;63.70;;;19.76;38.47;102165.06;5046003;28;20416;-79
2022/11/11 13:34:22;;;;;;;1.83;0.77;;;21.70;64.10;;;20.22;38.24;102176.31;5046604;28;20043;-78
2022/11/11 13:37:17;;;;;;;161.73;20.27;;;22.10;64.10;;;20.01;38.10;102172.25;5046388;28;20095;-80
2022/11/11 13:40:09;;;;;;;4.03;0.95;;;22.00;64.20;;;19.84;38.29;102164.69;5056961;28;20048;-81